createdAt,value
2017-11-01T00:00:24.616Z,77.6
2017-11-01T00:01:25.281Z,77.6
2017-11-01T00:02:25.947Z,77.7
2017-11-01T00:03:26.660Z,78.1
2017-11-01T00:04:27.375Z,78.2
2017-11-01T00:05:28.038Z,78.1
2017-11-01T00:06:28.705Z,78.0
2017-11-01T00:07:29.366Z,78.0
2017-11-01T00:08:30.031Z,77.4
2017-11-01T00:09:30.746Z,77.6
2017-11-01T00:10:31.462Z,77.3
2017-11-01T00:11:32.126Z,77.7
2017-11-01T00:12:32.792Z,77.2
2017-11-01T00:13:33.455Z,77.7
2017-11-01T00:14:34.169Z,77.4
2017-11-01T00:15:34.883Z,77.5
2017-11-01T00:16:35.597Z,77.6
2017-11-01T00:17:36.261Z,77.2
2017-11-01T00:18:36.927Z,77.7
2017-11-01T00:19:37.646Z,77.1
2017-11-01T00:20:38.307Z,77.1
2017-11-01T00:21:39.020Z,77.3
2017-11-01T00:22:39.683Z,77.3
2017-11-01T00:23:40.349Z,77.0
2017-11-01T00:24:41.011Z,77.3
2017-11-01T00:25:41.674Z,77.5
2017-11-01T00:26:42.337Z,77.8
2017-11-01T00:27:43.001Z,77.6
2017-11-01T00:28:43.665Z,77.9
2017-11-01T00:29:44.380Z,78.0
2017-11-01T00:30:45.047Z,78.5
2017-11-01T00:31:45.711Z,78.8
2017-11-01T00:32:46.374Z,79.0
2017-11-01T00:33:47.039Z,79.2
2017-11-01T00:34:47.753Z,79.3
2017-11-01T00:35:48.417Z,79.3
2017-11-01T00:36:49.130Z,79.3
2017-11-01T00:37:49.793Z,79.7
2017-11-01T00:38:50.456Z,80.3
2017-11-01T00:39:51.126Z,81.1
2017-11-01T00:40:51.834Z,81.2
2017-11-01T00:41:52.500Z,81.5
2017-11-01T00:42:53.163Z,81.8
2017-11-01T00:43:53.828Z,81.5
2017-11-01T00:44:54.492Z,82.7
2017-11-01T00:45:55.205Z,83.2
2017-11-01T00:46:55.869Z,83.7
2017-11-01T00:47:56.582Z,82.8
2017-11-01T00:48:57.244Z,82.5
2017-11-01T00:49:57.906Z,83.4
2017-11-01T00:50:58.569Z,83.2
2017-11-01T00:51:59.231Z,83.3
2017-11-01T00:52:59.892Z,83.0
2017-11-01T00:54:00.554Z,83.4
2017-11-01T00:55:01.217Z,83.1
2017-11-01T00:56:01.929Z,83.6
2017-11-01T00:57:02.643Z,83.1
2017-11-01T00:58:03.305Z,82.8
2017-11-01T00:59:03.969Z,82.9
2017-11-01T01:00:04.633Z,83.1
2017-11-01T01:01:05.300Z,83.0
2017-11-01T01:02:05.963Z,83.0
2017-11-01T01:03:06.660Z,83.3
2017-11-01T01:04:07.325Z,83.0
2017-11-01T01:05:07.988Z,83.4
2017-11-01T01:06:08.651Z,83.9
2017-11-01T01:07:09.314Z,84.2
2017-11-01T01:08:09.975Z,84.0
2017-11-01T01:09:10.638Z,83.5
2017-11-01T01:10:11.300Z,83.6
2017-11-01T01:11:11.962Z,84.5
2017-11-01T01:12:12.625Z,84.0
2017-11-01T01:13:13.292Z,83.7
2017-11-01T01:14:14.000Z,84.0
2017-11-01T01:15:14.667Z,84.2
2017-11-01T01:16:15.334Z,83.6
2017-11-01T01:17:16.026Z,83.3
2017-11-01T01:18:16.684Z,84.0
2017-11-01T01:19:17.346Z,84.3
2017-11-01T01:20:18.007Z,83.4
2017-11-01T01:21:18.668Z,82.8
2017-11-01T01:22:19.331Z,83.3
2017-11-01T01:23:19.992Z,83.8
2017-11-01T01:24:20.654Z,83.3
2017-11-01T01:25:21.316Z,83.6
2017-11-01T01:26:21.979Z,83.2
2017-11-01T01:27:22.641Z,83.7
2017-11-01T01:28:23.353Z,83.7
2017-11-01T01:29:24.015Z,83.4
2017-11-01T01:30:24.680Z,83.7
2017-11-01T01:31:25.341Z,84.4
2017-11-01T01:32:26.005Z,83.4
2017-11-01T01:33:26.701Z,84.0
2017-11-01T01:34:27.362Z,84.8
2017-11-01T01:35:28.075Z,84.2
2017-11-01T01:36:28.823Z,84.7
2017-11-01T01:37:29.486Z,84.6
2017-11-01T01:38:30.150Z,85.0
2017-11-01T01:39:30.876Z,85.2
2017-11-01T01:40:31.526Z,85.3
2017-11-01T01:41:32.189Z,85.3
2017-11-01T01:42:32.851Z,85.3
2017-11-01T01:43:33.514Z,85.4
2017-11-01T01:44:34.177Z,85.3
2017-11-01T01:45:34.840Z,85.2
2017-11-01T01:46:35.552Z,85.4
2017-11-01T01:47:36.216Z,85.3
2017-11-01T01:48:36.930Z,85.2
2017-11-01T01:49:37.593Z,85.2
2017-11-01T01:50:38.255Z,85.3
2017-11-01T01:51:38.916Z,85.4
2017-11-01T01:52:39.579Z,85.5
2017-11-01T01:53:40.242Z,85.9
2017-11-01T01:54:40.903Z,86.0
2017-11-01T01:55:41.566Z,85.5
2017-11-01T01:56:42.227Z,86.1
2017-11-01T01:57:42.896Z,86.4
2017-11-01T01:58:43.552Z,86.6
2017-11-01T01:59:44.214Z,87.2
2017-11-01T02:00:44.883Z,86.8
2017-11-01T02:01:45.537Z,87.6
2017-11-01T02:02:46.200Z,87.3
2017-11-01T02:03:46.861Z,86.8
2017-11-01T02:04:47.524Z,86.8
2017-11-01T02:05:48.224Z,87.0
2017-11-01T02:06:48.886Z,86.9
2017-11-01T02:07:49.598Z,87.8
2017-11-01T02:08:50.261Z,88.5
2017-11-01T02:09:50.923Z,87.8
2017-11-01T02:10:51.586Z,87.7
2017-11-01T02:11:52.301Z,87.3
2017-11-01T02:12:53.012Z,87.6
2017-11-01T02:13:53.674Z,87.6
2017-11-01T02:14:54.341Z,88.4
2017-11-01T02:15:54.999Z,88.1
2017-11-01T02:16:55.662Z,88.1
2017-11-01T02:17:56.374Z,87.9
2017-11-01T02:18:57.040Z,88.7
2017-11-01T02:19:57.702Z,88.7
2017-11-01T02:20:58.365Z,88.7
2017-11-01T02:21:59.078Z,88.8
2017-11-01T02:22:59.740Z,87.9
2017-11-01T02:24:00.463Z,87.4
2017-11-01T02:25:01.118Z,88.0
2017-11-01T02:26:01.861Z,88.4
2017-11-01T02:27:02.454Z,87.6
2017-11-01T02:28:03.117Z,87.4
2017-11-01T02:29:03.778Z,87.8
2017-11-01T02:30:04.441Z,87.0
2017-11-01T02:31:05.104Z,87.4
2017-11-01T02:32:05.768Z,87.7
2017-11-01T02:33:06.483Z,88.1
2017-11-01T02:34:07.195Z,87.8
2017-11-01T02:35:07.858Z,87.4
2017-11-01T02:36:08.522Z,87.2
2017-11-01T02:37:09.185Z,87.7
2017-11-01T02:38:09.848Z,86.9
2017-11-01T02:39:10.509Z,87.3
2017-11-01T02:40:11.173Z,86.9
2017-11-01T02:41:11.837Z,87.1
2017-11-01T02:42:12.550Z,87.2
2017-11-01T02:43:13.262Z,86.7
2017-11-01T02:44:13.926Z,86.9
2017-11-01T02:45:14.640Z,87.1
2017-11-01T02:46:15.302Z,86.9
2017-11-01T02:47:15.966Z,86.4
2017-11-01T02:48:16.627Z,87.3
2017-11-01T02:49:17.289Z,87.4
2017-11-01T02:50:17.952Z,87.1
2017-11-01T02:51:18.665Z,87.4
2017-11-01T02:52:19.379Z,87.0
2017-11-01T02:53:20.041Z,86.9
2017-11-01T02:54:20.702Z,86.7
2017-11-01T02:55:21.366Z,86.3
2017-11-01T02:56:22.029Z,86.0
2017-11-01T02:57:22.691Z,86.4
2017-11-01T02:58:23.351Z,86.6
2017-11-01T02:59:24.016Z,85.7
2017-11-01T03:00:24.676Z,85.9
2017-11-01T03:01:25.424Z,85.8
2017-11-01T03:02:26.087Z,85.8
2017-11-01T03:03:26.749Z,87.0
2017-11-01T03:04:27.412Z,86.1
2017-11-01T03:05:28.077Z,85.9
2017-11-01T03:06:28.739Z,86.0
2017-11-01T03:07:29.438Z,85.4
2017-11-01T03:08:30.151Z,85.4
2017-11-01T03:09:30.834Z,85.1
2017-11-01T03:10:31.485Z,85.5
2017-11-01T03:11:32.146Z,85.0
2017-11-01T03:12:32.811Z,85.2
2017-11-01T03:13:33.473Z,85.7
2017-11-01T03:14:34.186Z,85.0
2017-11-01T03:15:34.900Z,85.4
2017-11-01T03:16:35.651Z,86.1
2017-11-01T03:17:36.312Z,86.0
2017-11-01T03:18:36.974Z,86.0
2017-11-01T03:19:37.636Z,85.5
2017-11-01T03:20:38.348Z,85.7
2017-11-01T03:21:39.009Z,86.2
2017-11-01T03:22:39.671Z,86.1
2017-11-01T03:23:40.336Z,86.2
2017-11-01T03:24:41.042Z,86.1
2017-11-01T03:25:41.760Z,86.0
2017-11-01T03:26:42.419Z,86.0
2017-11-01T03:27:43.131Z,86.3
2017-11-01T03:28:43.793Z,87.0
2017-11-01T03:29:44.453Z,86.8
2017-11-01T03:30:45.165Z,87.0
2017-11-01T03:31:45.826Z,86.7
2017-11-01T03:32:46.538Z,86.8
2017-11-01T03:33:47.200Z,87.0
2017-11-01T03:34:47.862Z,86.6
2017-11-01T03:35:48.523Z,86.2
2017-11-01T03:36:49.185Z,86.0
2017-11-01T03:37:49.899Z,86.7
2017-11-01T03:38:50.610Z,86.8
2017-11-01T03:39:51.324Z,86.7
2017-11-01T03:40:51.987Z,86.9
2017-11-01T03:41:52.701Z,87.2
2017-11-01T03:42:53.413Z,86.7
2017-11-01T03:43:54.075Z,87.3
2017-11-01T03:44:54.738Z,87.2
2017-11-01T03:45:55.401Z,87.1
2017-11-01T03:46:56.113Z,87.1
2017-11-01T03:47:56.776Z,87.2
2017-11-01T03:48:57.437Z,87.2
2017-11-01T03:49:58.097Z,87.0
2017-11-01T03:50:58.757Z,87.0
2017-11-01T03:51:59.420Z,86.1
2017-11-01T03:53:00.080Z,86.6
2017-11-01T03:54:00.742Z,87.1
2017-11-01T03:55:01.404Z,86.8
2017-11-01T03:56:02.066Z,86.5
2017-11-01T03:57:02.728Z,86.4
2017-11-01T03:58:03.391Z,86.8
2017-11-01T03:59:04.052Z,86.6
2017-11-01T04:00:04.714Z,86.6
2017-11-01T04:01:05.375Z,86.4
2017-11-01T04:02:06.037Z,86.7
2017-11-01T04:03:06.700Z,86.1
2017-11-01T04:04:07.362Z,86.6
2017-11-01T04:05:08.024Z,86.6
2017-11-01T04:06:08.687Z,86.6
2017-11-01T04:07:09.350Z,86.4
2017-11-01T04:08:10.011Z,86.6
2017-11-01T04:09:10.674Z,86.5
2017-11-01T04:10:11.336Z,86.6
2017-11-01T04:11:12.000Z,86.1
2017-11-01T04:12:12.663Z,86.8
2017-11-01T04:13:13.325Z,86.5
2017-11-01T04:14:13.991Z,86.0
2017-11-01T04:15:14.647Z,86.1
2017-11-01T04:16:15.359Z,86.0
2017-11-01T04:17:16.107Z,86.0
2017-11-01T04:18:16.770Z,85.8
2017-11-01T04:19:17.431Z,86.0
2017-11-01T04:20:18.091Z,86.5
2017-11-01T04:21:18.803Z,85.8
2017-11-01T04:22:19.463Z,86.0
2017-11-01T04:23:20.124Z,86.5
2017-11-01T04:24:20.784Z,86.6
2017-11-01T04:25:21.494Z,87.2
2017-11-01T04:26:22.206Z,87.1
2017-11-01T04:27:22.919Z,86.7
2017-11-01T04:28:23.581Z,86.6
2017-11-01T04:29:24.244Z,86.5
2017-11-01T04:30:24.905Z,87.1
2017-11-01T04:31:25.567Z,87.1
2017-11-01T04:32:26.280Z,87.8
2017-11-01T04:33:26.994Z,87.4
2017-11-01T04:34:27.707Z,87.7
2017-11-01T04:35:28.371Z,88.2
2017-11-01T04:36:29.066Z,88.6
2017-11-01T04:37:29.779Z,89.4
2017-11-01T04:38:30.439Z,88.7
2017-11-01T04:39:31.101Z,88.7
2017-11-01T04:40:31.762Z,90.0
2017-11-01T04:41:32.423Z,90.1
2017-11-01T04:42:33.085Z,89.7
2017-11-01T04:43:33.747Z,89.5
2017-11-01T04:44:34.443Z,89.7
2017-11-01T04:45:35.155Z,90.1
2017-11-01T04:46:35.817Z,90.0
2017-11-01T04:47:36.514Z,90.9
2017-11-01T04:48:37.176Z,91.8
2017-11-01T04:49:37.839Z,90.7
2017-11-01T04:50:38.502Z,91.0
2017-11-01T04:51:39.215Z,91.7
2017-11-01T04:52:39.876Z,92.2
2017-11-01T04:53:40.536Z,91.8
2017-11-01T04:54:41.197Z,92.4
2017-11-01T04:55:41.859Z,92.4
2017-11-01T04:56:42.521Z,92.7
2017-11-01T04:57:43.183Z,93.7
2017-11-01T04:58:43.844Z,94.7
2017-11-01T04:59:44.507Z,95.5
2017-11-01T05:00:45.170Z,95.5
2017-11-01T05:01:45.832Z,95.3
2017-11-01T05:02:46.495Z,94.7
2017-11-01T05:03:47.155Z,94.7
2017-11-01T05:04:47.818Z,96.0
2017-11-01T05:05:48.480Z,95.7
2017-11-01T05:06:49.141Z,96.3
2017-11-01T05:07:49.803Z,95.8
2017-11-01T05:08:50.469Z,95.3
2017-11-01T05:09:51.165Z,95.2
2017-11-01T05:10:51.828Z,95.1
2017-11-01T05:11:52.490Z,95.5
2017-11-01T05:12:53.152Z,96.3
2017-11-01T05:13:53.813Z,95.3
2017-11-01T05:14:54.477Z,95.6
2017-11-01T05:15:55.190Z,97.0
2017-11-01T05:16:55.902Z,96.9
2017-11-01T05:17:56.562Z,96.9
2017-11-01T05:18:57.223Z,96.9
2017-11-01T05:19:57.883Z,97.0
2017-11-01T05:20:58.594Z,97.0
2017-11-01T05:21:59.255Z,96.2
2017-11-01T05:22:59.916Z,97.4
2017-11-01T05:24:00.664Z,97.2
2017-11-01T05:25:01.328Z,97.1
2017-11-01T05:26:01.999Z,96.9
2017-11-01T05:27:02.689Z,97.0
2017-11-01T05:28:03.352Z,98.0
2017-11-01T05:29:04.087Z,98.5
2017-11-01T05:30:04.678Z,98.1
2017-11-01T05:31:05.340Z,97.7
2017-11-01T05:32:06.052Z,98.0
2017-11-01T05:33:06.715Z,97.1
2017-11-01T05:34:07.379Z,97.6
2017-11-01T05:35:08.091Z,97.7
2017-11-01T05:36:08.752Z,99.1
2017-11-01T05:37:09.419Z,98.7
2017-11-01T05:38:10.074Z,98.5
2017-11-01T05:39:10.735Z,99.1
2017-11-01T05:40:11.396Z,98.8
2017-11-01T05:41:12.056Z,98.7
2017-11-01T05:42:12.720Z,98.7
2017-11-01T05:43:13.379Z,99.5
2017-11-01T05:44:14.079Z,100.0
2017-11-01T05:45:14.741Z,98.6
2017-11-01T05:46:15.453Z,99.0
2017-11-01T05:47:16.114Z,98.5
2017-11-01T05:48:16.825Z,99.1
2017-11-01T05:49:17.487Z,99.4
2017-11-01T05:50:18.149Z,99.4
2017-11-01T05:51:18.811Z,99.5
2017-11-01T05:52:19.728Z,98.4
2017-11-01T05:53:20.422Z,98.3
2017-11-01T05:54:21.084Z,97.8
2017-11-01T05:55:21.746Z,98.1
2017-11-01T05:56:22.408Z,98.5
2017-11-01T05:57:23.121Z,98.5
2017-11-01T05:58:23.834Z,98.6
2017-11-01T05:59:24.528Z,98.4
2017-11-01T06:00:25.194Z,98.5
2017-11-01T06:01:25.854Z,98.3
2017-11-01T06:02:26.515Z,98.7
2017-11-01T06:03:27.178Z,98.7
2017-11-01T06:04:27.840Z,98.1
2017-11-01T06:05:28.501Z,98.5
2017-11-01T06:06:29.163Z,98.8
2017-11-01T06:07:29.831Z,98.7
2017-11-01T06:08:30.537Z,98.4
2017-11-01T06:09:31.200Z,98.6
2017-11-01T06:10:31.877Z,98.8
2017-11-01T06:11:32.527Z,99.4
2017-11-01T06:12:33.192Z,98.8
2017-11-01T06:13:33.890Z,98.7
2017-11-01T06:14:34.602Z,98.7
2017-11-01T06:15:35.265Z,98.6
2017-11-01T06:16:35.983Z,98.6
2017-11-01T06:17:36.640Z,98.4
2017-11-01T06:18:37.304Z,98.6
2017-11-01T06:19:37.970Z,99.1
2017-11-01T06:20:38.632Z,99.4
2017-11-01T06:21:39.297Z,98.5
2017-11-01T06:22:39.960Z,99.3
2017-11-01T06:23:40.624Z,98.6
2017-11-01T06:24:41.288Z,98.8
2017-11-01T06:25:41.950Z,98.0
2017-11-01T06:26:42.611Z,97.9
2017-11-01T06:27:43.278Z,98.3
2017-11-01T06:28:43.976Z,99.3
2017-11-01T06:29:44.640Z,99.4
2017-11-01T06:30:45.302Z,98.6
2017-11-01T06:31:45.966Z,98.3
2017-11-01T06:32:46.630Z,98.3
2017-11-01T06:33:47.293Z,98.3
2017-11-01T06:34:47.969Z,97.8
2017-11-01T06:35:48.627Z,98.0
2017-11-01T06:36:49.336Z,98.1
2017-11-01T06:37:50.001Z,97.9
2017-11-01T06:38:50.665Z,98.6
2017-11-01T06:39:51.378Z,98.3
2017-11-01T06:40:52.048Z,98.5
2017-11-01T06:41:52.763Z,98.6
2017-11-01T06:42:53.428Z,99.2
2017-11-01T06:43:54.094Z,98.6
2017-11-01T06:44:54.759Z,98.7
2017-11-01T06:45:55.423Z,99.4
2017-11-01T06:46:56.087Z,99.5
2017-11-01T06:47:56.751Z,98.7
2017-11-01T06:48:57.416Z,99.1
2017-11-01T06:49:58.080Z,98.5
2017-11-01T06:50:58.747Z,98.7
2017-11-01T06:51:59.505Z,98.5
2017-11-01T06:53:00.163Z,99.2
2017-11-01T06:54:00.830Z,98.4
2017-11-01T06:55:01.544Z,99.5
2017-11-01T06:56:02.229Z,98.6
2017-11-01T06:57:02.945Z,97.7
2017-11-01T06:58:03.614Z,97.9
2017-11-01T06:59:04.276Z,98.4
2017-11-01T07:00:04.941Z,98.2
2017-11-01T07:01:05.609Z,97.7
2017-11-01T07:02:06.323Z,97.9
2017-11-01T07:03:06.995Z,98.4
2017-11-01T07:04:07.658Z,98.3
2017-11-01T07:05:08.322Z,99.2
2017-11-01T07:06:09.043Z,98.3
2017-11-01T07:07:09.741Z,97.7
2017-11-01T07:08:10.457Z,97.0
2017-11-01T07:09:11.180Z,97.7
2017-11-01T07:10:11.925Z,97.4
2017-11-01T07:11:12.592Z,97.0
2017-11-01T07:12:13.260Z,97.3
2017-11-01T07:13:13.926Z,97.4
2017-11-01T07:14:14.645Z,97.8
2017-11-01T07:15:15.311Z,97.8
2017-11-01T07:16:15.976Z,97.2
2017-11-01T07:17:16.645Z,97.9
2017-11-01T07:18:17.365Z,97.9
2017-11-01T07:19:18.031Z,97.5
2017-11-01T07:20:18.698Z,97.0
2017-11-01T07:21:19.364Z,97.7
2017-11-01T07:22:20.031Z,97.8
2017-11-01T07:23:20.697Z,98.1
2017-11-01T07:24:21.411Z,97.7
2017-11-01T07:25:22.086Z,97.1
2017-11-01T07:26:22.798Z,97.0
2017-11-01T07:27:23.467Z,96.8
2017-11-01T07:28:24.133Z,96.8
2017-11-01T07:29:24.835Z,96.7
2017-11-01T07:30:25.551Z,97.1
2017-11-01T07:31:26.219Z,96.2
2017-11-01T07:32:26.887Z,95.6
2017-11-01T07:33:27.552Z,95.7
2017-11-01T07:34:28.269Z,95.9
2017-11-01T07:35:28.936Z,96.3
2017-11-01T07:36:29.601Z,96.5
2017-11-01T07:37:30.266Z,96.6
2017-11-01T07:38:30.933Z,96.0
2017-11-01T07:39:31.599Z,95.8
2017-11-01T07:40:32.303Z,96.6
2017-11-01T07:41:32.972Z,96.8
2017-11-01T07:42:33.640Z,96.4
2017-11-01T07:43:34.357Z,96.5
2017-11-01T07:44:35.026Z,95.8
2017-11-01T07:45:35.693Z,96.4
2017-11-01T07:46:36.359Z,96.8
2017-11-01T07:47:37.028Z,97.3
2017-11-01T07:48:37.697Z,95.4
2017-11-01T07:49:38.416Z,95.6
2017-11-01T07:50:39.083Z,96.7
2017-11-01T07:51:39.801Z,97.0
2017-11-01T07:52:40.467Z,97.3
2017-11-01T07:53:41.185Z,97.3
2017-11-01T07:54:41.852Z,96.6
2017-11-01T07:55:42.520Z,96.6
2017-11-01T07:56:43.187Z,97.1
2017-11-01T07:57:43.855Z,96.9
2017-11-01T07:58:44.572Z,97.6
2017-11-01T07:59:45.243Z,98.4
2017-11-01T08:00:45.953Z,97.8
2017-11-01T08:01:46.656Z,97.3
2017-11-01T08:02:47.324Z,96.7
2017-11-01T08:03:47.992Z,98.0
2017-11-01T08:04:48.710Z,99.1
2017-11-01T08:05:49.381Z,98.3
2017-11-01T08:06:50.048Z,98.6
2017-11-01T08:07:50.717Z,97.4
2017-11-01T08:08:51.435Z,97.1
2017-11-01T08:09:52.103Z,97.0
2017-11-01T08:10:52.773Z,96.9
2017-11-01T08:11:53.493Z,97.2
2017-11-01T08:12:54.160Z,97.6
2017-11-01T08:13:54.830Z,97.0
2017-11-01T08:14:55.554Z,97.1
2017-11-01T08:15:56.218Z,97.1
2017-11-01T08:16:56.887Z,96.5
2017-11-01T08:17:57.645Z,96.6
2017-11-01T08:18:58.314Z,96.3
2017-11-01T08:19:58.982Z,97.2
2017-11-01T08:20:59.702Z,97.4
2017-11-01T08:22:00.366Z,97.0
2017-11-01T08:23:01.037Z,97.2
2017-11-01T08:24:01.756Z,97.0
2017-11-01T08:25:02.425Z,97.0
2017-11-01T08:26:03.142Z,97.3
2017-11-01T08:27:03.811Z,97.8
2017-11-01T08:28:04.485Z,97.1
2017-11-01T08:29:05.149Z,96.5
2017-11-01T08:30:05.871Z,97.4
2017-11-01T08:31:06.537Z,97.0
2017-11-01T08:32:07.260Z,97.1
2017-11-01T08:33:07.903Z,97.1
2017-11-01T08:34:08.626Z,96.9
2017-11-01T08:35:09.292Z,96.3
2017-11-01T08:36:10.010Z,96.5
2017-11-01T08:37:10.729Z,96.5
2017-11-01T08:38:11.401Z,96.2
2017-11-01T08:39:12.072Z,96.6
2017-11-01T08:40:12.794Z,96.6
2017-11-01T08:41:13.513Z,96.2
2017-11-01T08:42:14.185Z,95.5
2017-11-01T08:43:14.854Z,95.6
2017-11-01T08:44:15.574Z,95.5
2017-11-01T08:45:16.242Z,95.4
2017-11-01T08:46:16.911Z,95.7
2017-11-01T08:47:17.631Z,94.7
2017-11-01T08:48:18.303Z,95.0
2017-11-01T08:49:18.971Z,95.4
2017-11-01T08:50:19.641Z,95.3
2017-11-01T08:51:20.312Z,94.7
2017-11-01T08:52:20.981Z,94.5
2017-11-01T08:53:21.650Z,94.9
2017-11-01T08:54:22.319Z,94.3
2017-11-01T08:55:23.038Z,95.0
2017-11-01T08:56:23.758Z,94.2
2017-11-01T08:57:24.478Z,93.7
2017-11-01T08:58:25.200Z,93.7
2017-11-01T08:59:25.869Z,94.5
2017-11-01T09:00:26.593Z,94.8
2017-11-01T09:01:27.262Z,94.6
2017-11-01T09:02:27.934Z,94.2
2017-11-01T09:03:28.603Z,93.9
2017-11-01T09:04:29.273Z,93.9
2017-11-01T09:05:29.944Z,93.4
2017-11-01T09:06:30.612Z,93.8
2017-11-01T09:07:31.280Z,93.7
2017-11-01T09:08:31.950Z,93.2
2017-11-01T09:09:32.618Z,93.1
2017-11-01T09:10:33.338Z,92.6
2017-11-01T09:11:34.011Z,92.5
2017-11-01T09:12:34.730Z,92.5
2017-11-01T09:13:35.401Z,92.2
2017-11-01T09:14:36.072Z,92.6
2017-11-01T09:15:36.776Z,93.3
2017-11-01T09:16:37.496Z,93.2
2017-11-01T09:17:38.166Z,93.1
2017-11-01T09:18:38.837Z,93.1
2017-11-01T09:19:39.508Z,92.8
2017-11-01T09:20:40.179Z,92.7
2017-11-01T09:21:40.851Z,92.5
2017-11-01T09:22:41.521Z,91.9
2017-11-01T09:23:42.242Z,92.6
2017-11-01T09:24:42.912Z,91.8
2017-11-01T09:25:43.582Z,91.3
2017-11-01T09:26:44.253Z,90.9
2017-11-01T09:27:44.923Z,91.3
2017-11-01T09:28:45.592Z,91.7
2017-11-01T09:29:46.310Z,91.8
2017-11-01T09:30:46.979Z,91.4
2017-11-01T09:31:47.648Z,91.9
2017-11-01T09:32:48.369Z,91.3
2017-11-01T09:33:49.039Z,91.0
2017-11-01T09:34:49.712Z,91.8
2017-11-01T09:35:50.431Z,91.7
2017-11-01T09:36:51.153Z,91.0
2017-11-01T09:37:51.823Z,91.0
2017-11-01T09:38:52.495Z,91.0
2017-11-01T09:39:53.216Z,91.3
2017-11-01T09:40:53.889Z,91.3
2017-11-01T09:41:54.559Z,91.0
2017-11-01T09:42:55.229Z,91.6
2017-11-01T09:43:55.949Z,90.9
2017-11-01T09:44:56.672Z,91.2
2017-11-01T09:45:57.343Z,90.8
2017-11-01T09:46:58.013Z,90.9
2017-11-01T09:47:58.684Z,91.3
2017-11-01T09:48:59.405Z,90.7
2017-11-01T09:50:00.077Z,91.1
2017-11-01T09:51:00.748Z,91.1
2017-11-01T09:52:01.419Z,90.4
2017-11-01T09:53:02.094Z,91.2
2017-11-01T09:54:02.816Z,91.2
2017-11-01T09:55:03.569Z,90.8
2017-11-01T09:56:04.240Z,91.3
2017-11-01T09:57:04.911Z,90.9
2017-11-01T09:58:05.580Z,91.0
2017-11-01T09:59:06.249Z,90.9
2017-11-01T10:00:06.924Z,90.9
2017-11-01T10:01:07.591Z,90.8
2017-11-01T10:02:08.261Z,90.4
2017-11-01T10:03:08.931Z,90.0
2017-11-01T10:04:09.600Z,89.9
2017-11-01T10:05:10.269Z,90.4
2017-11-01T10:06:10.939Z,90.1
2017-11-01T10:07:11.660Z,90.1
2017-11-01T10:08:12.382Z,89.9
2017-11-01T10:09:13.053Z,89.9
2017-11-01T10:10:13.727Z,89.8
2017-11-01T10:11:14.398Z,89.9
2017-11-01T10:12:15.116Z,90.5
2017-11-01T10:13:15.789Z,89.3
2017-11-01T10:14:16.458Z,90.0
2017-11-01T10:15:17.130Z,90.3
2017-11-01T10:16:17.804Z,89.7
2017-11-01T10:17:18.474Z,89.6
2017-11-01T10:18:19.147Z,89.3
2017-11-01T10:19:19.852Z,89.4
2017-11-01T10:20:20.521Z,89.5
2017-11-01T10:21:21.193Z,89.5
2017-11-01T10:22:21.865Z,89.8
2017-11-01T10:23:22.585Z,89.9
2017-11-01T10:24:23.258Z,89.9
2017-11-01T10:25:23.977Z,89.3
2017-11-01T10:26:24.650Z,89.4
2017-11-01T10:27:25.321Z,89.2
2017-11-01T10:28:25.991Z,88.9
2017-11-01T10:29:26.663Z,89.4
2017-11-01T10:30:27.382Z,89.5
2017-11-01T10:31:28.055Z,89.3
2017-11-01T10:32:28.725Z,88.7
2017-11-01T10:33:29.448Z,88.1
2017-11-01T10:34:30.117Z,88.1
2017-11-01T10:35:30.798Z,88.3
2017-11-01T10:36:31.501Z,87.8
2017-11-01T10:37:32.171Z,87.3
2017-11-01T10:38:32.892Z,87.4
2017-11-01T10:39:33.562Z,86.8
2017-11-01T10:40:34.234Z,87.0
2017-11-01T10:41:34.906Z,86.7
2017-11-01T10:42:35.579Z,86.5
2017-11-01T10:43:36.300Z,85.9
2017-11-01T10:44:36.971Z,86.1
2017-11-01T10:45:37.643Z,85.6
2017-11-01T10:46:38.318Z,84.7
2017-11-01T10:47:38.988Z,84.1
2017-11-01T10:48:39.710Z,84.3
2017-11-01T10:49:40.382Z,83.7
2017-11-01T10:50:41.106Z,83.3
2017-11-01T10:51:41.831Z,83.4
2017-11-01T10:52:42.499Z,84.0
2017-11-01T10:53:43.170Z,83.5
2017-11-01T10:54:43.845Z,83.8
2017-11-01T10:55:44.568Z,83.6
2017-11-01T10:56:45.240Z,83.1
2017-11-01T10:57:45.911Z,83.4
2017-11-01T10:58:46.636Z,82.9
2017-11-01T10:59:47.305Z,83.3
2017-11-01T11:00:48.029Z,83.6
2017-11-01T11:01:48.702Z,83.4
2017-11-01T11:02:49.372Z,83.2
2017-11-01T11:03:50.045Z,83.4
2017-11-01T11:04:50.718Z,83.7
2017-11-01T11:05:51.442Z,83.5
2017-11-01T11:06:52.113Z,83.5
2017-11-01T11:07:52.788Z,83.2
2017-11-01T11:08:53.504Z,83.2
2017-11-01T11:09:54.171Z,83.6
2017-11-01T11:10:54.844Z,84.0
2017-11-01T11:11:55.566Z,84.3
2017-11-01T11:12:56.241Z,83.7
2017-11-01T11:13:56.912Z,83.3
2017-11-01T11:14:57.634Z,83.4
2017-11-01T11:15:58.374Z,83.5
2017-11-01T11:16:59.029Z,84.3
2017-11-01T11:17:59.697Z,84.5
2017-11-01T11:19:00.367Z,84.5
2017-11-01T11:20:01.038Z,84.6
2017-11-01T11:21:01.711Z,84.5
2017-11-01T11:22:02.377Z,84.4
2017-11-01T11:23:03.098Z,84.3
2017-11-01T11:24:03.822Z,84.5
2017-11-01T11:25:04.495Z,84.4
2017-11-01T11:26:05.165Z,84.8
2017-11-01T11:27:05.886Z,84.9
2017-11-01T11:28:06.558Z,84.8
2017-11-01T11:29:07.228Z,85.2
2017-11-01T11:30:07.951Z,85.2
2017-11-01T11:31:08.622Z,85.6
2017-11-01T11:32:09.347Z,85.5
2017-11-01T11:33:10.069Z,85.4
2017-11-01T11:34:10.739Z,85.3
2017-11-01T11:35:11.411Z,85.3
2017-11-01T11:36:12.088Z,85.4
2017-11-01T11:37:12.762Z,85.3
2017-11-01T11:38:13.428Z,85.4
2017-11-01T11:39:14.149Z,85.4
2017-11-01T11:40:14.820Z,85.7
2017-11-01T11:41:15.492Z,85.5
2017-11-01T11:42:16.172Z,84.8
2017-11-01T11:43:16.835Z,84.9
2017-11-01T11:44:17.507Z,84.9
2017-11-01T11:45:18.226Z,84.7
2017-11-01T11:46:18.901Z,84.1
2017-11-01T11:47:19.620Z,84.4
2017-11-01T11:48:20.342Z,84.1
2017-11-01T11:49:21.013Z,84.2
2017-11-01T11:50:21.690Z,84.3
2017-11-01T11:51:22.356Z,85.0
2017-11-01T11:52:23.027Z,85.0
2017-11-01T11:53:23.696Z,84.7
2017-11-01T11:54:24.416Z,84.9
2017-11-01T11:55:25.085Z,84.9
2017-11-01T11:56:25.806Z,84.7
2017-11-01T11:57:26.476Z,85.0
2017-11-01T11:58:27.148Z,85.3
2017-11-01T11:59:27.819Z,85.4
2017-11-01T12:00:28.491Z,84.8
2017-11-01T12:01:29.210Z,84.6
2017-11-01T12:02:29.882Z,85.0
2017-11-01T12:03:30.553Z,85.0
2017-11-01T12:04:31.223Z,84.3
2017-11-01T12:05:31.944Z,84.7
2017-11-01T12:06:32.615Z,84.9
2017-11-01T12:07:33.338Z,84.7
2017-11-01T12:08:34.009Z,84.2
2017-11-01T12:09:34.680Z,84.4
2017-11-01T12:10:35.350Z,84.4
2017-11-01T12:11:36.108Z,84.0
2017-11-01T12:12:36.779Z,83.9
2017-11-01T12:13:37.504Z,84.4
2017-11-01T12:14:38.177Z,84.4
2017-11-01T12:15:38.897Z,84.3
2017-11-01T12:16:39.570Z,84.0
2017-11-01T12:17:40.242Z,84.0
2017-11-01T12:18:40.915Z,83.7
2017-11-01T12:19:41.587Z,83.3
2017-11-01T12:20:42.258Z,83.5
2017-11-01T12:21:42.930Z,83.2
2017-11-01T12:22:43.653Z,83.4
2017-11-01T12:23:44.376Z,83.3
2017-11-01T12:24:45.098Z,83.4
2017-11-01T12:25:45.821Z,83.3
2017-11-01T12:26:46.492Z,83.1
2017-11-01T12:27:47.211Z,83.1
2017-11-01T12:28:47.882Z,82.9
2017-11-01T12:29:48.555Z,82.4
2017-11-01T12:30:49.225Z,82.1
2017-11-01T12:31:49.897Z,82.1
2017-11-01T12:32:50.570Z,82.1
2017-11-01T12:33:51.242Z,81.9
2017-11-01T12:34:51.911Z,81.7
2017-11-01T12:35:52.636Z,81.8
2017-11-01T12:36:53.305Z,81.6
2017-11-01T12:37:53.982Z,81.9
2017-11-01T12:38:54.699Z,82.0
2017-11-01T12:39:55.423Z,82.0
2017-11-01T12:40:56.133Z,82.2
2017-11-01T12:41:56.855Z,82.6
2017-11-01T12:42:57.525Z,82.1
2017-11-01T12:43:58.196Z,82.2
2017-11-01T12:44:58.866Z,82.1
2017-11-01T12:45:59.538Z,81.7
2017-11-01T12:47:00.210Z,81.5
2017-11-01T12:48:00.882Z,81.8
2017-11-01T12:49:01.605Z,81.6
2017-11-01T12:50:02.277Z,81.9
2017-11-01T12:51:02.986Z,81.4
2017-11-01T12:52:03.710Z,81.6
2017-11-01T12:53:04.407Z,81.3
2017-11-01T12:54:05.105Z,81.4
2017-11-01T12:55:05.824Z,81.4
2017-11-01T12:56:06.499Z,81.4
2017-11-01T12:57:07.172Z,81.3
2017-11-01T12:58:07.842Z,81.2
2017-11-01T12:59:08.513Z,82.0
2017-11-01T13:00:09.222Z,82.2
2017-11-01T13:01:09.893Z,82.4
2017-11-01T13:02:10.620Z,82.0
2017-11-01T13:03:11.290Z,82.2
2017-11-01T13:04:12.012Z,82.2
2017-11-01T13:05:12.683Z,82.2
2017-11-01T13:06:13.391Z,82.0
2017-11-01T13:07:14.064Z,81.5
2017-11-01T13:08:14.737Z,81.3
2017-11-01T13:09:15.447Z,81.3
2017-11-01T13:10:16.123Z,81.2
2017-11-01T13:11:16.826Z,80.6
2017-11-01T13:12:17.503Z,81.5
2017-11-01T13:13:18.210Z,81.2
2017-11-01T13:14:18.931Z,81.7
2017-11-01T13:15:19.605Z,82.1
2017-11-01T13:16:20.327Z,81.5
2017-11-01T13:17:21.049Z,81.2
2017-11-01T13:18:21.720Z,81.5
2017-11-01T13:19:22.393Z,82.0
2017-11-01T13:20:23.065Z,81.5
2017-11-01T13:21:23.735Z,82.4
2017-11-01T13:22:24.406Z,82.4
2017-11-01T13:23:25.078Z,82.7
2017-11-01T13:24:25.750Z,82.1
2017-11-01T13:25:26.422Z,82.4
2017-11-01T13:26:27.095Z,82.1
2017-11-01T13:27:27.818Z,81.7